createdAt,value
2023-03-23T15:59:48.964Z,100132.00
2023-03-23T16:02:50.113Z,100146.19
2023-03-23T16:05:50.016Z,100139.03
2023-03-23T16:08:53.969Z,100146.44
2023-03-23T16:11:55.027Z,100142.06
2023-03-23T16:14:54.967Z,100147.12
2023-03-23T16:17:55.040Z,100152.84
2023-03-23T16:20:55.006Z,100149.00
2023-03-23T16:23:54.949Z,100153.97
2023-03-23T16:26:54.958Z,100163.81
2023-03-23T16:30:03.592Z,100155.81
2023-03-23T16:33:03.992Z,100161.94
2023-03-23T16:36:05.085Z,100162.03
2023-03-23T16:39:04.982Z,100154.25
2023-03-23T16:42:05.006Z,100152.81
2023-03-23T16:45:05.029Z,100141.09
2023-03-23T16:48:08.128Z,100153.19
2023-03-23T16:51:07.993Z,100162.63
2023-03-23T16:54:07.981Z,100131.56
2023-03-23T16:57:08.036Z,100175.06
2023-03-23T17:00:08.032Z,100167.44
2023-03-23T17:03:09.096Z,100166.63
2023-03-23T17:06:08.984Z,100177.06
2023-03-23T17:09:08.991Z,100183.53
2023-03-23T17:12:09.002Z,100182.59
2023-03-23T17:15:08.980Z,100172.06
2023-03-23T17:18:09.007Z,100171.69
2023-03-23T17:21:08.975Z,100175.56
2023-03-23T17:24:09.005Z,100171.03
2023-03-23T17:27:09.029Z,100172.31
2023-03-23T17:30:08.987Z,100174.41
2023-03-23T17:33:09.032Z,100174.56
2023-03-23T17:36:09.027Z,100181.53
2023-03-23T17:39:09.082Z,100177.78
2023-03-23T17:42:09.020Z,100183.75
2023-03-23T17:45:09.005Z,100170.72
2023-03-23T17:48:09.278Z,100192.34
2023-03-23T17:51:10.023Z,100190.94
2023-03-23T17:54:10.000Z,100201.09
2023-03-23T17:57:10.026Z,100199.81
2023-03-23T18:00:10.010Z,100200.38
2023-03-23T18:03:10.079Z,100192.03
2023-03-23T18:06:17.983Z,100190.34
2023-03-23T18:09:17.997Z,100190.75
2023-03-23T18:12:18.032Z,100199.91
2023-03-23T18:15:17.979Z,100192.28
2023-03-23T18:18:19.014Z,100197.81
2023-03-23T18:21:21.027Z,100192.53
2023-03-23T18:24:21.040Z,100203.91
2023-03-23T18:27:20.999Z,100192.41
2023-03-23T18:30:22.059Z,100199.47
2023-03-23T18:33:21.972Z,100185.84
2023-03-23T18:36:23.089Z,100201.81
2023-03-23T18:39:23.022Z,100200.03
2023-03-23T18:42:23.003Z,100196.22
2023-03-23T18:45:23.022Z,100180.84
2023-03-23T18:48:23.008Z,100179.34
2023-03-23T18:51:23.021Z,100194.72
2023-03-23T18:54:24.005Z,100189.94
2023-03-23T18:57:25.032Z,100190.47
2023-03-23T19:00:25.010Z,100178.72
2023-03-23T19:03:25.108Z,100183.94
2023-03-23T19:06:31.933Z,100185.69
2023-03-23T19:09:32.033Z,100197.56
2023-03-23T19:12:32.041Z,100199.63
2023-03-23T19:15:32.087Z,100195.31
2023-03-23T19:18:31.987Z,100178.31
2023-03-23T19:21:32.506Z,100188.47
2023-03-23T19:24:33.009Z,100184.66
2023-03-23T19:27:33.024Z,100188.38
2023-03-23T19:30:33.029Z,100175.25
2023-03-23T19:33:33.012Z,100185.38
2023-03-23T19:36:36.061Z,100186.47
2023-03-23T19:39:36.399Z,100180.09
2023-03-23T19:42:36.037Z,100193.06
2023-03-23T19:45:36.433Z,100190.06
2023-03-23T19:48:39.585Z,100190.69
2023-03-23T19:51:39.986Z,100182.34
2023-03-23T19:54:40.813Z,100183.94
2023-03-23T19:57:42.409Z,100197.34
2023-03-23T20:00:42.041Z,100202.78
2023-03-23T20:03:42.003Z,100201.28
2023-03-23T20:06:42.024Z,100200.31
2023-03-23T20:09:42.006Z,100191.38
2023-03-23T20:12:42.047Z,100192.31
2023-03-23T20:15:44.307Z,100201.97
2023-03-23T20:18:45.128Z,100195.63
2023-03-23T20:21:46.030Z,100211.06
2023-03-23T20:24:46.034Z,100201.59
2023-03-23T20:27:46.040Z,100202.78
2023-03-23T20:30:46.007Z,100200.84
2023-03-23T20:34:12.035Z,100200.06
2023-03-23T20:37:13.015Z,100204.56
2023-03-23T20:40:14.044Z,100210.91
2023-03-23T20:43:14.032Z,100220.37
2023-03-23T20:46:15.024Z,100221.69
2023-03-23T20:49:15.000Z,100219.78
2023-03-23T20:52:15.044Z,100233.19
2023-03-23T20:55:15.002Z,100226.28
2023-03-23T20:58:15.004Z,100228.19
2023-03-23T21:01:16.105Z,100224.25
2023-03-23T21:04:22.045Z,100236.22
2023-03-23T21:07:23.076Z,100230.56
2023-03-23T21:10:22.989Z,100224.50
2023-03-23T21:13:23.007Z,100215.91
2023-03-23T21:16:23.044Z,100208.84
2023-03-23T21:19:24.038Z,100214.34
2023-03-23T21:22:24.994Z,100207.69
2023-03-23T21:25:35.390Z,100200.53
2023-03-23T21:28:34.998Z,100194.78
2023-03-23T21:31:40.003Z,100200.13
2023-03-23T21:34:39.997Z,100194.34
2023-03-23T21:37:33.307Z,100196.19
2023-03-23T21:40:34.039Z,100199.59
2023-03-23T21:43:34.032Z,100197.88
2023-03-23T21:46:34.016Z,100201.69
2023-03-23T21:49:34.055Z,100209.25
2023-03-23T21:52:33.979Z,100210.06
2023-03-23T21:55:36.025Z,100210.41
2023-03-23T21:58:37.986Z,100203.63
2023-03-23T22:01:38.065Z,100191.34
2023-03-23T22:04:38.038Z,100205.78
2023-03-23T22:07:39.989Z,100204.47
2023-03-23T22:10:39.998Z,100205.66
2023-03-23T22:13:41.043Z,100205.31
2023-03-23T22:16:41.050Z,100211.28
2023-03-23T22:19:40.990Z,100192.53
2023-03-23T22:22:41.033Z,100213.75
2023-03-23T22:25:41.037Z,100215.91
2023-03-23T22:28:43.056Z,100220.44
2023-03-23T22:34:45.988Z,100213.50
2023-03-23T22:37:46.049Z,100213.25
2023-03-23T22:40:46.264Z,100221.81
2023-03-23T22:43:47.018Z,100216.91
2023-03-23T22:46:47.045Z,100215.97
2023-03-23T22:49:47.056Z,100220.25
2023-03-23T22:52:47.002Z,100222.16
2023-03-23T22:55:47.057Z,100224.41
2023-03-23T22:58:47.004Z,100224.88
2023-03-23T23:01:47.053Z,100200.91
2023-03-23T23:04:48.038Z,100223.06
2023-03-23T23:07:48.058Z,100220.19
2023-03-23T23:10:49.007Z,100216.22
2023-03-23T23:13:49.010Z,100230.53
2023-03-23T23:16:49.044Z,100228.84
2023-03-23T23:19:49.001Z,100225.50
2023-03-23T23:22:49.017Z,100234.06
2023-03-23T23:25:49.008Z,100235.53
2023-03-23T23:28:49.045Z,100240.03
2023-03-23T23:31:49.008Z,100225.81
2023-03-23T23:34:50.068Z,100229.78
2023-03-23T23:37:50.041Z,100205.34
2023-03-23T23:40:50.094Z,100194.81
2023-03-23T23:43:50.024Z,100226.53
2023-03-23T23:46:50.036Z,100224.69
2023-03-23T23:49:50.023Z,100231.81
2023-03-23T23:52:51.026Z,100238.84
2023-03-23T23:55:53.056Z,100237.72
2023-03-23T23:58:52.997Z,100235.78
